createdAt,value
2022-08-25T00:00:56.425Z,19.00
2022-08-25T00:03:45.437Z,19.00
2022-08-25T00:06:33.106Z,18.90
2022-08-25T00:09:23.140Z,18.90
2022-08-25T00:12:12.309Z,18.80
2022-08-25T00:14:59.969Z,18.80
2022-08-25T00:17:49.258Z,18.80
2022-08-25T00:20:36.352Z,18.80
2022-08-25T00:23:27.523Z,18.70
2022-08-25T00:26:16.139Z,18.70
2022-08-25T00:29:05.744Z,18.70
2022-08-25T00:31:53.581Z,18.70
2022-08-25T00:34:40.876Z,18.60
2022-08-25T00:37:28.092Z,18.60
2022-08-25T00:40:15.083Z,18.60
2022-08-25T00:43:02.900Z,18.60
2022-08-25T00:45:55.397Z,18.50
2022-08-25T00:48:44.925Z,18.50
2022-08-25T00:51:37.869Z,18.50
2022-08-25T00:54:28.549Z,18.50
2022-08-25T00:57:18.641Z,18.50
2022-08-25T01:00:14.384Z,18.50
2022-08-25T01:03:03.137Z,18.40
2022-08-25T01:05:51.585Z,18.40
2022-08-25T01:08:39.368Z,18.40
2022-08-25T01:11:27.924Z,18.40
2022-08-25T01:14:18.372Z,18.40
2022-08-25T01:17:05.557Z,18.30
2022-08-25T01:19:54.382Z,18.30
2022-08-25T01:22:42.610Z,18.30
2022-08-25T01:25:42.877Z,18.30
2022-08-25T01:28:30.005Z,18.20
2022-08-25T01:31:23.744Z,18.20
2022-08-25T01:34:13.137Z,18.20
2022-08-25T01:37:01.288Z,18.10
2022-08-25T01:39:50.048Z,18.10
2022-08-25T01:42:47.730Z,18.10
2022-08-25T01:45:35.004Z,18.10
2022-08-25T01:48:22.256Z,18.00
2022-08-25T01:51:09.672Z,18.00
2022-08-25T01:53:56.363Z,18.00
2022-08-25T01:56:45.175Z,18.00
2022-08-25T01:59:35.575Z,17.90
2022-08-25T02:02:23.616Z,18.00
2022-08-25T02:05:14.478Z,17.90
2022-08-25T02:08:02.107Z,17.90
2022-08-25T02:10:49.313Z,17.90
2022-08-25T02:13:37.907Z,17.90
2022-08-25T02:16:29.574Z,17.80
2022-08-25T02:19:17.871Z,17.80
2022-08-25T02:22:05.300Z,17.80
2022-08-25T02:24:52.739Z,17.80
2022-08-25T02:27:39.846Z,17.80
2022-08-25T02:30:28.490Z,17.80
2022-08-25T02:33:15.782Z,17.80
2022-08-25T02:36:03.656Z,17.70
2022-08-25T02:38:51.095Z,17.70
2022-08-25T02:41:39.046Z,17.70
2022-08-25T02:44:26.116Z,17.70
2022-08-25T02:47:14.333Z,17.70
2022-08-25T02:50:01.549Z,17.70
2022-08-25T02:52:50.823Z,17.70
2022-08-25T02:55:37.945Z,17.70
2022-08-25T02:58:24.919Z,17.70
2022-08-25T03:01:13.449Z,17.70
2022-08-25T03:04:03.101Z,17.60
2022-08-25T03:06:49.731Z,17.60
2022-08-25T03:09:36.630Z,17.60
2022-08-25T03:12:25.259Z,17.60
2022-08-25T03:15:14.694Z,17.60
2022-08-25T03:18:03.548Z,17.60
2022-08-25T03:20:52.191Z,17.60
2022-08-25T03:23:40.986Z,17.60
2022-08-25T03:26:42.148Z,17.60
2022-08-25T03:29:30.805Z,17.50
2022-08-25T03:32:16.827Z,17.50
2022-08-25T03:35:05.105Z,17.50
2022-08-25T03:37:57.084Z,17.50
2022-08-25T03:40:44.479Z,17.50
2022-08-25T03:43:31.974Z,17.40
2022-08-25T03:46:20.680Z,17.40
2022-08-25T03:49:09.859Z,17.40
2022-08-25T03:51:56.657Z,17.40
2022-08-25T03:54:46.544Z,17.30
2022-08-25T03:57:33.531Z,17.40
2022-08-25T04:00:20.873Z,17.30
2022-08-25T04:03:08.641Z,17.30
2022-08-25T04:05:55.323Z,17.30
2022-08-25T04:08:43.694Z,17.30
2022-08-25T04:11:32.275Z,17.20
2022-08-25T04:14:19.628Z,17.20
2022-08-25T04:17:06.615Z,17.20
2022-08-25T04:19:53.445Z,17.20
2022-08-25T04:22:40.629Z,17.20
2022-08-25T04:25:32.515Z,17.20
2022-08-25T04:28:20.950Z,17.20
2022-08-25T04:31:09.331Z,17.20
2022-08-25T04:33:57.044Z,17.20
2022-08-25T04:36:47.023Z,17.20
2022-08-25T04:39:39.941Z,17.20
2022-08-25T04:42:27.088Z,17.20
2022-08-25T04:45:15.215Z,17.20
2022-08-25T04:48:02.423Z,17.20
2022-08-25T04:50:49.745Z,17.20
2022-08-25T04:53:37.135Z,17.20
2022-08-25T04:56:26.233Z,17.20
2022-08-25T04:59:16.393Z,17.20
2022-08-25T05:02:05.472Z,17.20
2022-08-25T05:04:53.385Z,17.20
2022-08-25T05:07:40.244Z,17.20
2022-08-25T05:10:27.300Z,17.20
2022-08-25T05:13:14.649Z,17.20
2022-08-25T05:16:05.861Z,17.30
2022-08-25T05:18:59.407Z,17.40
2022-08-25T05:21:46.632Z,17.40
2022-08-25T05:24:33.360Z,17.40
2022-08-25T05:27:20.641Z,17.40
2022-08-25T05:30:09.782Z,17.50
2022-08-25T05:32:57.520Z,17.50
2022-08-25T05:35:46.163Z,17.60
2022-08-25T05:38:33.284Z,17.60
2022-08-25T05:41:22.242Z,17.70
2022-08-25T05:44:09.840Z,17.70
2022-08-25T05:46:56.867Z,17.70
2022-08-25T05:49:43.956Z,17.80
2022-08-25T05:52:32.960Z,17.80
2022-08-25T05:55:19.860Z,17.90
2022-08-25T05:58:07.263Z,18.00
2022-08-25T06:00:57.880Z,18.10
2022-08-25T06:03:44.262Z,18.10
2022-08-25T06:06:31.789Z,18.20
2022-08-25T06:09:20.111Z,18.30
2022-08-25T06:12:08.604Z,18.40
2022-08-25T06:14:56.575Z,18.50
2022-08-25T06:17:43.723Z,18.50
2022-08-25T06:20:32.679Z,18.60
2022-08-25T06:23:20.408Z,18.70
2022-08-25T06:26:13.144Z,18.70
2022-08-25T06:29:07.975Z,18.80
2022-08-25T06:31:55.647Z,18.90
2022-08-25T06:34:42.991Z,19.00
2022-08-25T06:37:30.448Z,19.10
2022-08-25T06:40:17.800Z,19.20
2022-08-25T06:43:08.950Z,19.30
2022-08-25T06:45:55.928Z,19.40
2022-08-25T06:48:43.432Z,19.50
2022-08-25T06:51:30.421Z,19.50
2022-08-25T06:54:17.905Z,19.70
2022-08-25T06:57:07.143Z,19.70
2022-08-25T06:59:56.074Z,19.80
2022-08-25T07:02:44.569Z,20.00
2022-08-25T07:05:43.425Z,20.00
2022-08-25T07:08:30.658Z,20.20
2022-08-25T07:11:18.488Z,20.30
2022-08-25T07:14:07.268Z,20.40
2022-08-25T07:16:55.835Z,20.60
2022-08-25T07:19:43.638Z,20.70
2022-08-25T07:22:31.508Z,20.80
2022-08-25T07:25:18.459Z,20.90
2022-08-25T07:28:05.982Z,21.00
2022-08-25T07:31:01.061Z,21.20
2022-08-25T07:34:03.573Z,21.30
2022-08-25T07:36:50.450Z,21.40
2022-08-25T07:39:37.466Z,21.60
2022-08-25T07:42:25.674Z,21.70
2022-08-25T07:45:20.553Z,21.90
2022-08-25T07:48:12.129Z,22.00
2022-08-25T07:51:07.856Z,22.10
2022-08-25T07:53:55.946Z,22.20
2022-08-25T07:56:44.289Z,22.40
2022-08-25T07:59:39.176Z,22.60
2022-08-25T08:02:27.217Z,22.70
2022-08-25T08:05:16.132Z,22.90
2022-08-25T08:08:05.307Z,23.00
2022-08-25T08:11:09.631Z,23.10
2022-08-25T08:13:58.632Z,23.30
2022-08-25T08:16:45.716Z,23.40
2022-08-25T08:19:32.644Z,23.50
2022-08-25T08:22:21.137Z,23.60
2022-08-25T08:25:13.731Z,23.70
2022-08-25T08:28:08.964Z,24.00
2022-08-25T08:30:58.523Z,24.10
2022-08-25T08:33:45.460Z,24.20
2022-08-25T08:36:32.523Z,24.40
2022-08-25T08:39:19.641Z,24.50
2022-08-25T08:42:22.154Z,24.60
2022-08-25T08:45:23.471Z,24.80
2022-08-25T08:48:26.491Z,24.90
2022-08-25T08:51:23.183Z,25.20
2022-08-25T08:54:18.881Z,25.50
2022-08-25T08:57:13.115Z,25.80
2022-08-25T09:00:03.896Z,26.00
2022-08-25T09:02:57.961Z,26.20
2022-08-25T09:05:49.656Z,26.30
2022-08-25T09:08:39.130Z,26.50
2022-08-25T09:11:53.873Z,26.70
2022-08-25T09:14:55.130Z,26.70
2022-08-25T09:17:56.375Z,26.80
2022-08-25T09:20:55.002Z,26.90
2022-08-25T09:23:56.672Z,27.00
2022-08-25T09:26:51.081Z,27.30
2022-08-25T09:30:00.394Z,27.40
2022-08-25T09:32:50.466Z,27.50
2022-08-25T09:35:42.093Z,27.60
2022-08-25T09:38:32.307Z,27.70
2022-08-25T09:41:35.715Z,27.80
2022-08-25T09:44:26.861Z,27.90
2022-08-25T09:47:25.435Z,28.10
2022-08-25T09:50:19.090Z,28.30
2022-08-25T09:53:17.337Z,28.20
2022-08-25T09:56:08.157Z,28.20
2022-08-25T09:59:01.143Z,28.20
2022-08-25T10:01:51.719Z,28.20
2022-08-25T10:04:41.434Z,28.30
2022-08-25T10:07:36.083Z,28.40
2022-08-25T10:10:32.420Z,28.60
2022-08-25T10:13:23.771Z,28.70
2022-08-25T10:16:24.511Z,28.70
2022-08-25T10:19:15.896Z,28.70
2022-08-25T10:22:10.953Z,28.50
2022-08-25T10:24:58.902Z,28.40
2022-08-25T10:27:56.797Z,28.30
2022-08-25T10:31:00.487Z,28.30
2022-08-25T10:34:01.549Z,28.40
2022-08-25T10:37:00.082Z,28.50
2022-08-25T10:39:58.926Z,28.60
2022-08-25T10:42:58.824Z,28.70
2022-08-25T10:45:51.202Z,28.90
2022-08-25T10:48:52.647Z,29.00
2022-08-25T10:51:51.323Z,29.00
2022-08-25T10:54:48.674Z,29.00
2022-08-25T10:57:46.944Z,29.00
2022-08-25T11:00:41.840Z,28.90
2022-08-25T11:03:47.177Z,28.90
2022-08-25T11:06:43.776Z,28.90
2022-08-25T11:09:39.212Z,28.80
2022-08-25T11:12:32.332Z,28.80
2022-08-25T11:15:26.110Z,28.70
2022-08-25T11:18:16.001Z,28.70
2022-08-25T11:21:09.663Z,28.70
2022-08-25T11:24:03.300Z,28.70
2022-08-25T11:26:57.510Z,28.70
2022-08-25T11:29:50.519Z,28.50
2022-08-25T11:32:39.510Z,28.40
2022-08-25T11:35:32.737Z,28.40
2022-08-25T11:38:34.986Z,28.60
2022-08-25T11:41:30.620Z,28.70
2022-08-25T11:44:45.621Z,28.90
2022-08-25T11:48:05.707Z,29.00
2022-08-25T11:50:58.886Z,29.10
2022-08-25T11:53:46.458Z,29.00
2022-08-25T11:56:40.268Z,29.10
2022-08-25T11:59:57.660Z,29.20
2022-08-25T12:02:46.660Z,29.20
2022-08-25T12:05:53.330Z,29.20
2022-08-25T12:08:49.905Z,29.20
2022-08-25T12:11:51.356Z,29.30
2022-08-25T12:14:44.718Z,29.30
2022-08-25T12:17:40.006Z,29.40
2022-08-25T12:20:56.451Z,29.40
2022-08-25T12:23:51.577Z,29.50
2022-08-25T12:26:46.964Z,29.50
2022-08-25T12:29:42.200Z,29.60
2022-08-25T12:32:46.169Z,29.70
2022-08-25T12:35:38.419Z,29.80
2022-08-25T12:38:32.919Z,29.70
2022-08-25T12:41:27.036Z,29.70
2022-08-25T12:44:39.072Z,29.70
2022-08-25T12:47:32.346Z,29.80
2022-08-25T12:50:56.242Z,29.80
2022-08-25T12:53:47.449Z,29.90
2022-08-25T12:56:42.051Z,30.00
2022-08-25T12:59:38.672Z,30.00
2022-08-25T13:02:52.885Z,29.90
2022-08-25T13:05:49.829Z,29.90
2022-08-25T13:08:51.815Z,29.80
2022-08-25T13:11:49.681Z,29.90
2022-08-25T13:14:41.623Z,30.10
2022-08-25T13:17:33.926Z,30.10
2022-08-25T13:20:25.649Z,30.10
2022-08-25T13:23:13.409Z,30.20
2022-08-25T13:26:00.148Z,30.00
2022-08-25T13:28:55.182Z,30.00
2022-08-25T13:31:54.986Z,30.10
2022-08-25T13:34:43.395Z,30.10
2022-08-25T13:37:31.415Z,30.00
2022-08-25T13:40:27.843Z,29.90
2022-08-25T13:43:15.914Z,29.90
2022-08-25T13:46:05.728Z,29.90
2022-08-25T13:49:05.421Z,29.90
2022-08-25T13:51:55.256Z,30.00
2022-08-25T13:54:43.797Z,30.00
2022-08-25T13:57:33.820Z,29.90
2022-08-25T14:00:32.710Z,29.90
2022-08-25T14:03:35.051Z,29.90
2022-08-25T14:06:23.663Z,30.00
2022-08-25T14:09:17.000Z,29.90
2022-08-25T14:12:04.492Z,30.10
2022-08-25T14:15:00.470Z,30.20
2022-08-25T14:17:50.911Z,30.30
2022-08-25T14:20:44.582Z,30.20
2022-08-25T14:23:32.362Z,30.10
2022-08-25T14:26:19.725Z,30.20
2022-08-25T14:29:08.146Z,30.30
2022-08-25T14:31:57.665Z,30.40
2022-08-25T14:34:45.985Z,30.40
2022-08-25T14:37:34.768Z,30.40
2022-08-25T14:40:22.709Z,30.40
2022-08-25T14:43:10.855Z,30.30
2022-08-25T14:45:57.844Z,30.30
2022-08-25T14:48:49.014Z,30.20
2022-08-25T14:51:40.372Z,30.10
2022-08-25T14:54:29.432Z,30.10
2022-08-25T14:57:17.069Z,30.00
2022-08-25T15:00:05.770Z,30.00
2022-08-25T15:02:58.414Z,30.00
2022-08-25T15:05:46.478Z,30.00
2022-08-25T15:08:49.585Z,30.00
2022-08-25T15:11:41.690Z,29.90
2022-08-25T15:14:33.307Z,29.80
2022-08-25T15:17:20.556Z,29.70
2022-08-25T15:20:08.415Z,29.60
2022-08-25T15:22:58.316Z,29.40
2022-08-25T15:25:48.774Z,29.40
2022-08-25T15:28:43.545Z,29.40
2022-08-25T15:31:31.603Z,29.30
2022-08-25T15:34:19.394Z,29.20
2022-08-25T15:37:10.293Z,29.10
2022-08-25T15:39:57.320Z,28.90
2022-08-25T15:42:45.914Z,28.80
2022-08-25T15:45:36.392Z,28.70
2022-08-25T15:48:23.816Z,28.70
2022-08-25T15:51:12.269Z,28.70
2022-08-25T15:53:59.325Z,28.70
2022-08-25T15:56:47.337Z,28.70
2022-08-25T15:59:35.085Z,28.70
2022-08-25T16:02:24.413Z,28.60
2022-08-25T16:05:16.447Z,28.60
2022-08-25T16:08:04.452Z,28.60
2022-08-25T16:10:52.276Z,28.60
2022-08-25T16:13:40.313Z,28.50
2022-08-25T16:16:32.411Z,28.50
2022-08-25T16:19:21.232Z,28.50
2022-08-25T16:22:08.922Z,28.50
2022-08-25T16:24:58.211Z,28.50
2022-08-25T16:27:45.652Z,28.40
2022-08-25T16:30:32.784Z,28.40
2022-08-25T16:33:19.884Z,28.40
2022-08-25T16:36:12.146Z,28.40
2022-08-25T16:39:01.111Z,28.30
2022-08-25T16:41:48.458Z,28.40
2022-08-25T16:44:39.971Z,28.30
2022-08-25T16:47:27.678Z,28.30
2022-08-25T16:50:16.269Z,28.30
2022-08-25T16:53:18.519Z,28.20
2022-08-25T16:56:07.555Z,28.10
2022-08-25T16:58:59.871Z,28.00
2022-08-25T17:01:45.667Z,27.90
2022-08-25T17:04:33.052Z,27.90
2022-08-25T17:07:23.867Z,27.80
2022-08-25T17:10:12.950Z,27.70
2022-08-25T17:13:00.395Z,27.60
2022-08-25T17:15:52.204Z,27.40
2022-08-25T17:18:40.566Z,27.30
2022-08-25T17:21:29.353Z,27.20
2022-08-25T17:24:16.977Z,27.10
2022-08-25T17:27:05.569Z,27.10
2022-08-25T17:29:52.847Z,27.00
2022-08-25T17:32:40.080Z,26.90
2022-08-25T17:35:27.979Z,26.80
2022-08-25T17:38:16.039Z,26.70
2022-08-25T17:41:06.823Z,26.70
2022-08-25T17:43:55.473Z,26.60
2022-08-25T17:46:47.455Z,26.60
2022-08-25T17:49:35.044Z,26.60
2022-08-25T17:52:25.489Z,26.50
2022-08-25T17:55:13.085Z,26.50
2022-08-25T17:58:04.322Z,26.50
2022-08-25T18:00:52.868Z,26.40
2022-08-25T18:03:40.120Z,26.40
2022-08-25T18:06:31.387Z,26.40
2022-08-25T18:09:19.232Z,26.30
2022-08-25T18:12:06.628Z,26.30
2022-08-25T18:14:53.413Z,26.20
2022-08-25T18:17:45.266Z,26.20
2022-08-25T18:20:32.591Z,26.10
2022-08-25T18:23:19.830Z,26.10
2022-08-25T18:26:07.234Z,26.10
2022-08-25T18:28:54.303Z,26.00
2022-08-25T18:31:42.402Z,26.00
2022-08-25T18:34:31.850Z,26.00
2022-08-25T18:37:33.878Z,25.90
2022-08-25T18:40:23.678Z,25.90
2022-08-25T18:43:12.697Z,25.80
2022-08-25T18:45:59.288Z,25.70
2022-08-25T18:48:46.717Z,25.70
2022-08-25T18:51:34.880Z,25.60
2022-08-25T18:54:23.297Z,25.50
2022-08-25T18:57:12.252Z,25.50
2022-08-25T18:59:59.528Z,25.40
2022-08-25T19:02:47.916Z,25.40
2022-08-25T19:05:38.594Z,25.30
2022-08-25T19:08:28.012Z,25.20
2022-08-25T19:11:16.047Z,25.20
2022-08-25T19:14:03.294Z,25.10
2022-08-25T19:16:59.500Z,25.10
2022-08-25T19:19:47.995Z,25.00
2022-08-25T19:22:41.795Z,24.90
2022-08-25T19:25:33.216Z,24.80
2022-08-25T19:28:21.982Z,24.80
2022-08-25T19:31:09.041Z,24.70
2022-08-25T19:33:59.321Z,24.70
2022-08-25T19:36:47.073Z,24.70
2022-08-25T19:39:42.018Z,24.60
2022-08-25T19:42:38.117Z,24.60
2022-08-25T19:45:26.995Z,24.50
2022-08-25T19:48:15.324Z,24.50
2022-08-25T19:51:02.500Z,24.50
2022-08-25T19:53:54.038Z,24.50
2022-08-25T19:56:43.495Z,24.50
2022-08-25T19:59:47.490Z,24.30
2022-08-25T20:02:36.442Z,24.30
2022-08-25T20:05:25.009Z,24.40
2022-08-25T20:08:12.173Z,24.40
2022-08-25T20:10:59.123Z,24.40
2022-08-25T20:13:46.509Z,24.30
2022-08-25T20:16:38.763Z,24.30
2022-08-25T20:19:26.096Z,24.30
2022-08-25T20:22:17.726Z,24.20
2022-08-25T20:25:13.448Z,24.20
2022-08-25T20:28:01.864Z,24.20
2022-08-25T20:30:48.965Z,24.20
2022-08-25T20:33:37.569Z,24.10
2022-08-25T20:36:27.030Z,24.20
2022-08-25T20:39:14.015Z,24.10
2022-08-25T20:42:00.749Z,24.00
2022-08-25T20:44:47.738Z,24.00
2022-08-25T20:47:35.396Z,24.00
2022-08-25T20:50:24.718Z,24.00
2022-08-25T20:53:15.893Z,24.00
2022-08-25T20:56:09.193Z,23.90
2022-08-25T20:58:56.576Z,23.90
2022-08-25T21:01:43.882Z,23.80
2022-08-25T21:04:32.154Z,23.80
2022-08-25T21:07:21.161Z,23.70
2022-08-25T21:10:14.495Z,23.70
2022-08-25T21:13:02.027Z,23.70
2022-08-25T21:15:48.947Z,23.60
2022-08-25T21:18:37.089Z,23.60
2022-08-25T21:21:24.990Z,23.60
2022-08-25T21:24:18.622Z,23.60
2022-08-25T21:27:06.415Z,23.50
2022-08-25T21:29:54.601Z,23.50
2022-08-25T21:32:53.513Z,23.50
2022-08-25T21:35:42.866Z,23.40
2022-08-25T21:38:30.435Z,23.40
2022-08-25T21:41:23.144Z,23.30
2022-08-25T21:44:11.311Z,23.30
2022-08-25T21:46:58.986Z,23.30
2022-08-25T21:49:45.949Z,23.20
2022-08-25T21:52:32.947Z,23.20
2022-08-25T21:55:20.131Z,23.10
2022-08-25T21:58:10.191Z,23.10
2022-08-25T22:00:57.601Z,23.10
2022-08-25T22:03:47.243Z,23.00
2022-08-25T22:06:35.945Z,22.90
2022-08-25T22:09:23.194Z,22.90
2022-08-25T22:12:10.913Z,22.90
2022-08-25T22:14:59.436Z,22.80
2022-08-25T22:17:48.158Z,22.80
2022-08-25T22:20:35.534Z,22.80
2022-08-25T22:23:28.292Z,22.70
2022-08-25T22:26:16.340Z,22.70
2022-08-25T22:29:09.637Z,22.60
2022-08-25T22:32:02.208Z,22.60
2022-08-25T22:34:49.680Z,22.50
2022-08-25T22:37:36.920Z,22.50
2022-08-25T22:40:24.574Z,22.50
2022-08-25T22:43:11.497Z,22.40
2022-08-25T22:46:03.242Z,22.40
2022-08-25T22:48:51.764Z,22.40
2022-08-25T22:51:39.882Z,22.30
2022-08-25T22:54:27.143Z,22.30
2022-08-25T22:57:17.105Z,22.20
2022-08-25T23:00:07.847Z,22.20
2022-08-25T23:02:54.916Z,22.10
2022-08-25T23:05:44.371Z,22.10
2022-08-25T23:08:40.708Z,22.00
2022-08-25T23:11:28.956Z,22.00
2022-08-25T23:14:16.508Z,22.00
2022-08-25T23:17:08.678Z,21.90
2022-08-25T23:19:55.835Z,21.90
2022-08-25T23:22:43.386Z,21.90
2022-08-25T23:25:31.375Z,21.80
2022-08-25T23:28:18.814Z,21.80
2022-08-25T23:31:07.735Z,21.70
2022-08-25T23:33:58.923Z,21.70
2022-08-25T23:36:46.681Z,21.60
2022-08-25T23:39:35.817Z,21.60
2022-08-25T23:42:26.770Z,21.50
2022-08-25T23:45:14.726Z,21.50
2022-08-25T23:48:01.834Z,21.50
2022-08-25T23:50:53.939Z,21.50
2022-08-25T23:53:41.757Z,21.40
2022-08-25T23:56:30.131Z,21.30
2022-08-25T23:59:17.698Z,21.30
